This is the latest recevied weather packets stored in our database for station/object DH4SBM. If no packets are shown the sender has not sent any weather packets the latest 10 day(s).
| Time | Temp. | Humidity | Pressure | Rain* | Wind** | Luminosity | Snow |
|---|---|---|---|---|---|---|---|
| 1777423542 | 11.67° C | 56% | 1021.1 hPa | 0 mm | - | 0 W/m² | - |
| 1777422936 | 12.22° C | 55% | 1021.1 hPa | 0 mm | - | 0 W/m² | - |
| 1777422336 | 12.22° C | 55% | 1021.1 hPa | 0 mm | - | 0 W/m² | - |
| 1777421736 | 12.22° C | 55% | 1021 hPa | 0 mm | - | 0 W/m² | - |
| 1777421136 | 12.22° C | 55% | 1021 hPa | 0 mm | - | 0 W/m² | - |
| 1777420536 | 12.22° C | 55% | 1020.9 hPa | 0 mm | - | 0 W/m² | - |
| 1777419936 | 12.78° C | 55% | 1020.9 hPa | 0 mm | - | 0 W/m² | - |
| 1777419336 | 12.78° C | 55% | 1021 hPa | 0 mm | - | 0 W/m² | - |
| 1777418736 | 12.78° C | 54% | 1020.9 hPa | 0 mm | - | 0 W/m² | - |
| 1777418136 | 12.78° C | 55% | 1020.7 hPa | 0 mm | - | 0 W/m² | - |
| 1777417536 | 13.33° C | 55% | 1020.9 hPa | 0 mm | - | 0 W/m² | - |
| 1777416936 | 12.78° C | 56% | 1020.7 hPa | 0 mm | - | 0 W/m² | - |
| 1777416336 | 13.33° C | 57% | 1020.8 hPa | 0 mm | - | 0 W/m² | - |
| 1777415736 | 13.33° C | 57% | 1020.8 hPa | 0 mm | - | 0 W/m² | - |
| 1777415136 | 13.33° C | 56% | 1020.6 hPa | 0 mm | - | 0 W/m² | - |
| 1777414536 | 13.89° C | 57% | 1020.8 hPa | 0 mm | - | 0 W/m² | - |
| 1777413936 | 13.89° C | 57% | 1020.7 hPa | 0 mm | - | 0 W/m² | - |
| 1777413336 | 14.44° C | 56% | 1020.7 hPa | 0 mm | - | 0 W/m² | - |
| 1777412736 | 14.44° C | 56% | 1020.8 hPa | 0 mm | - | 0 W/m² | - |
| 1777412136 | 14.44° C | 56% | 1020.8 hPa | 0 mm | - | 0 W/m² | - |
| 1777411536 | 14.44° C | 55% | 1020.6 hPa | 0 mm | - | 0 W/m² | - |
| 1777410936 | 14.44° C | 55% | 1020.5 hPa | 0 mm | - | 0 W/m² | - |
| 1777410336 | 15° C | 54% | 1020.4 hPa | 0 mm | - | 0 W/m² | - |
| 1777409736 | 15° C | 53% | 1020.3 hPa | 0 mm | - | 0 W/m² | - |
| 1777409136 | 15° C | 51% | 1020.1 hPa | 0 mm | - | 0 W/m² | - |
* Rain latest hour (hover to see other rain measurements)
** Current wind speed in m/s (hover to see current wind gust speed)